Time;durP1;ratioP1;P1;durP2;ratioP2;P2;SDS_P1;SDS_P2;PMS_P1;PMS_P2;Temp;Humidity;BMP_temperature;BMP_pressure;BME280_temperature;BME280_humidity;BME280_pressure;Samples;Min_cycle;Max_cycle;Signal;HPM_P1;HPM_P2
2022/07/16 00:02:57;;;;;;;6.60;4.85;;;23.60;62.80;;;;;;5055411;28;20075;-14
2022/07/16 00:05:23;;;;;;;8.73;5.15;;;23.60;61.90;;;;;;5055455;28;20056;-14
2022/07/16 00:07:49;;;;;;;6.63;4.75;;;23.50;62.40;;;;;;5055278;28;20032;-14
2022/07/16 00:10:15;;;;;;;8.55;5.40;;;23.60;61.70;;;;;;5055115;28;20063;-14
2022/07/16 00:12:41;;;;;;;7.57;4.97;;;23.60;61.60;;;;;;5055275;28;20021;-16
2022/07/16 00:15:07;;;;;;;9.40;5.30;;;23.60;62.50;;;;;;5055178;28;20052;-16
2022/07/16 00:17:33;;;;;;;6.80;5.10;;;23.60;62.60;;;;;;5055278;28;20036;-15
2022/07/16 00:19:59;;;;;;;6.57;5.07;;;23.60;62.40;;;;;;5054940;28;20025;-15
2022/07/16 00:22:25;;;;;;;6.72;5.15;;;23.60;62.70;;;;;;5054780;28;20032;-15
2022/07/16 00:24:51;;;;;;;6.18;4.53;;;23.60;62.50;;;;;;5055223;28;20017;-14
2022/07/16 00:27:17;;;;;;;8.25;5.30;;;23.60;62.50;;;;;;5054892;28;20388;-14
2022/07/16 00:29:43;;;;;;;10.25;5.35;;;23.60;63.30;;;;;;5055040;28;20017;-14
2022/07/16 00:32:09;;;;;;;7.50;5.10;;;23.60;63.90;;;;;;5054429;28;20052;-14
2022/07/16 00:34:35;;;;;;;6.18;5.28;;;23.60;63.70;;;;;;5054879;28;20021;-16
2022/07/16 00:37:01;;;;;;;7.82;5.88;;;23.60;64.30;;;;;;5054965;28;20051;-14
2022/07/16 00:39:27;;;;;;;8.52;5.78;;;23.60;64.80;;;;;;5055206;28;20416;-14
2022/07/16 00:41:53;;;;;;;8.73;5.38;;;23.60;64.50;;;;;;5054878;28;20044;-14
2022/07/16 00:44:19;;;;;;;8.63;5.60;;;23.60;64.30;;;;;;5054672;28;20478;-14
2022/07/16 00:46:48;;;;;;;8.30;5.60;;;23.60;65.00;;;;;;5053277;28;20114;-14
2022/07/16 00:49:15;;;;;;;6.95;5.40;;;23.60;65.10;;;;;;5054831;28;20037;-16
2022/07/16 00:51:50;;;;;;;8.85;5.63;;;23.70;64.90;;;;;;5054728;28;20013;-14
2022/07/16 00:54:17;;;;;;;7.78;5.50;;;23.70;65.30;;;;;;5054028;28;20131;-14
2022/07/16 00:56:43;;;;;;;8.30;5.32;;;23.60;65.50;;;;;;5054579;28;20028;-14
2022/07/16 00:59:10;;;;;;;8.02;5.70;;;23.60;66.00;;;;;;5054701;28;20033;-14
2022/07/16 01:01:36;;;;;;;9.82;6.35;;;23.60;66.00;;;;;;5054201;28;20433;-16
2022/07/16 01:04:04;;;;;;;9.98;5.85;;;23.60;66.50;;;;;;5054246;28;20485;-14
2022/07/16 01:06:31;;;;;;;9.27;5.97;;;23.50;67.60;;;;;;5054230;28;20472;-15
2022/07/16 01:08:58;;;;;;;7.68;6.07;;;23.50;67.40;;;;;;5054428;28;20099;-15
2022/07/16 01:11:23;;;;;;;11.07;6.45;;;23.50;67.40;;;;;;5054123;28;20017;-14
2022/07/16 01:13:50;;;;;;;10.52;6.30;;;23.40;67.60;;;;;;5053948;28;20051;-14
2022/07/16 01:16:18;;;;;;;9.82;6.57;;;23.40;67.40;;;;;;5053725;28;20412;-14
2022/07/16 01:18:45;;;;;;;10.55;7.15;;;23.40;68.00;;;;;;5054098;28;20032;-14
2022/07/16 01:21:13;;;;;;;9.70;7.85;;;23.40;68.70;;;;;;5053931;28;20480;-13
2022/07/16 01:23:39;;;;;;;13.52;6.78;;;23.30;69.70;;;;;;5053728;28;20086;-14
2022/07/16 01:26:06;;;;;;;8.80;6.68;;;23.30;69.40;;;;;;5053996;28;20100;-15
2022/07/16 01:28:32;;;;;;;11.98;7.53;;;23.30;69.50;;;;;;5052318;28;20029;-15
2022/07/16 01:30:57;;;;;;;10.20;7.30;;;23.30;70.00;;;;;;5053731;28;20013;-13
2022/07/16 01:33:33;;;;;;;11.57;6.97;;;23.30;70.30;;;;;;5054191;28;20474;-13
2022/07/16 01:36:05;;;;;;;9.63;6.45;;;23.20;70.60;;;;;;5053833;28;20508;-13
2022/07/16 01:38:32;;;;;;;8.68;6.95;;;23.20;69.90;;;;;;5053421;28;20036;-15
2022/07/16 01:40:58;;;;;;;10.10;7.50;;;23.20;69.90;;;;;;5053462;28;20025;-12
2022/07/16 01:43:27;;;;;;;10.52;7.25;;;23.20;70.50;;;;;;5053691;28;20106;-14
2022/07/16 01:45:55;;;;;;;11.57;8.05;;;23.20;70.10;;;;;;5053719;28;20211;-14
2022/07/16 01:48:22;;;;;;;11.63;7.97;;;23.20;70.60;;;;;;5053415;28;20057;-14
2022/07/16 01:50:49;;;;;;;9.85;6.38;;;23.20;71.00;;;;;;5053391;28;20415;-15
2022/07/16 01:53:15;;;;;;;10.80;8.13;;;23.20;70.50;;;;;;5053298;28;20043;-14
2022/07/16 01:55:42;;;;;;;9.90;7.38;;;23.20;71.10;;;;;;5053631;28;20021;-15
2022/07/16 01:58:10;;;;;;;12.20;7.63;;;23.20;70.70;;;;;;5053264;28;20056;-14
2022/07/16 02:00:38;;;;;;;9.82;7.43;;;23.20;70.90;;;;;;5053015;28;20028;-15
2022/07/16 02:03:06;;;;;;;8.15;6.88;;;23.20;70.60;;;;;;5053111;28;20029;-13
2022/07/16 02:05:31;;;;;;;10.05;7.38;;;23.20;70.10;;;;;;5052686;28;20075;-15
2022/07/16 02:07:57;;;;;;;11.55;7.80;;;23.20;70.30;;;;;;5053191;28;20021;-15
2022/07/16 02:10:23;;;;;;;9.73;8.32;;;23.20;70.50;;;;;;5053191;28;20032;-14
2022/07/16 02:12:49;;;;;;;11.35;8.18;;;23.20;71.10;;;;;;5053334;28;20033;-14
2022/07/16 02:15:15;;;;;;;14.35;7.50;;;23.10;70.70;;;;;;5053047;28;20027;-14
2022/07/16 02:17:42;;;;;;;13.95;8.73;;;23.10;70.60;;;;;;5052951;28;20025;-15
2022/07/16 02:20:09;;;;;;;10.02;8.38;;;23.10;71.10;;;;;;5052959;28;20029;-14
2022/07/16 02:22:35;;;;;;;11.35;8.65;;;23.10;70.80;;;;;;5052725;28;20488;-15
2022/07/16 02:25:03;;;;;;;10.13;7.28;;;23.10;71.10;;;;;;5053192;28;20022;-15
2022/07/16 02:27:29;;;;;;;10.60;7.38;;;23.10;70.60;;;;;;5052807;28;20048;-14
2022/07/16 02:29:55;;;;;;;9.27;7.75;;;23.10;70.50;;;;;;5053138;28;20029;-14
2022/07/16 02:32:21;;;;;;;9.65;7.25;;;23.10;70.20;;;;;;5052467;28;20523;-15
2022/07/16 02:34:48;;;;;;;8.82;7.05;;;23.10;70.30;;;;;;5053067;28;20025;-13
2022/07/16 02:37:14;;;;;;;11.98;8.20;;;23.20;70.60;;;;;;5053166;28;20500;-14
2022/07/16 02:39:41;;;;;;;11.88;8.80;;;23.10;70.30;;;;;;5053097;28;20489;-15
2022/07/16 02:42:07;;;;;;;10.65;8.93;;;23.10;71.10;;;;;;5053019;28;20086;-14
2022/07/16 02:44:32;;;;;;;10.25;8.10;;;23.10;71.60;;;;;;5052600;28;20494;-15
2022/07/16 02:46:58;;;;;;;11.80;9.68;;;23.10;70.60;;;;;;5052954;28;20025;-14
2022/07/16 02:49:24;;;;;;;9.43;8.07;;;23.10;71.30;;;;;;5052828;28;20498;-13
2022/07/16 02:51:50;;;;;;;9.40;8.07;;;23.10;70.70;;;;;;5052917;28;20067;-14
2022/07/16 02:54:16;;;;;;;10.55;8.02;;;23.10;70.90;;;;;;5052585;28;20104;-14
2022/07/16 02:56:42;;;;;;;10.48;8.15;;;23.10;70.70;;;;;;5051404;28;20088;-15
2022/07/16 02:59:08;;;;;;;10.02;8.35;;;23.10;70.50;;;;;;5052963;28;20048;-14
2022/07/16 03:01:34;;;;;;;10.80;8.32;;;23.10;70.70;;;;;;5052952;28;20480;-14
2022/07/16 03:04:00;;;;;;;10.98;8.02;;;23.10;71.50;;;;;;5052530;28;20055;-15
2022/07/16 03:06:26;;;;;;;12.10;8.68;;;23.10;71.20;;;;;;5052348;28;20075;-15
2022/07/16 03:08:52;;;;;;;10.50;8.95;;;23.00;71.40;;;;;;5052974;28;20021;-11
2022/07/16 03:11:18;;;;;;;9.82;8.05;;;23.00;71.50;;;;;;5052732;28;20017;-13
2022/07/16 03:13:44;;;;;;;9.88;7.85;;;23.00;71.10;;;;;;5052794;28;20025;-14
2022/07/16 03:16:10;;;;;;;10.80;8.30;;;22.90;70.60;;;;;;5051304;28;20021;-14
2022/07/16 03:18:36;;;;;;;12.43;8.25;;;23.00;70.60;;;;;;5055564;28;20127;-13
2022/07/16 03:21:02;;;;;;;11.55;7.75;;;23.00;70.50;;;;;;5054915;28;20037;-14
2022/07/16 03:23:27;;;;;;;12.13;7.53;;;23.00;70.40;;;;;;5056259;28;20047;-14
2022/07/16 03:25:53;;;;;;;11.50;7.50;;;22.90;70.20;;;;;;5056097;28;20033;-14
2022/07/16 03:28:19;;;;;;;8.45;6.95;;;22.90;69.90;;;;;;5055855;28;20017;-15
2022/07/16 03:30:45;;;;;;;8.88;7.30;;;22.90;69.90;;;;;;5056480;28;20095;-14
2022/07/16 03:33:11;;;;;;;9.98;7.55;;;22.80;70.10;;;;;;5055614;28;20052;-12
2022/07/16 03:35:37;;;;;;;9.93;7.43;;;22.80;70.10;;;;;;5056239;28;20033;-14
2022/07/16 03:40:48;;;;;;;9.30;7.03;;;22.80;69.90;;;;;;5056315;28;20118;-13
2022/07/16 03:43:14;;;;;;;9.35;7.38;;;22.70;69.80;;;;;;5056279;28;20075;-14
2022/07/16 03:45:40;;;;;;;9.38;6.57;;;22.70;69.80;;;;;;5055752;28;20036;-12
2022/07/16 03:48:05;;;;;;;9.57;6.63;;;22.70;69.60;;;;;;5054379;28;20025;-15
2022/07/16 03:50:31;;;;;;;10.82;6.90;;;22.70;69.50;;;;;;5055504;28;20080;-14
2022/07/16 03:52:57;;;;;;;9.77;6.95;;;22.70;69.20;;;;;;5037748;28;20396;-14
2022/07/16 03:55:23;;;;;;;10.10;6.38;;;22.70;69.20;;;;;;5055834;28;20079;-13
2022/07/16 03:57:49;;;;;;;8.20;6.13;;;22.70;68.90;;;;;;5055493;28;20119;-14
2022/07/16 04:00:15;;;;;;;9.57;5.70;;;22.60;68.70;;;;;;5055355;28;20021;-14
2022/07/16 04:02:41;;;;;;;6.65;5.65;;;22.70;68.50;;;;;;5055826;28;20033;-13
2022/07/16 04:05:07;;;;;;;7.05;5.70;;;22.70;68.30;;;;;;5055697;28;20029;-14
2022/07/16 04:07:33;;;;;;;7.80;6.43;;;22.70;68.30;;;;;;5055634;28;20074;-14
2022/07/16 04:09:59;;;;;;;8.82;5.95;;;22.70;68.20;;;;;;5055580;28;20120;-14
2022/07/16 04:12:25;;;;;;;9.57;6.30;;;22.70;68.20;;;;;;5055026;28;20167;-13
2022/07/16 04:14:51;;;;;;;7.18;6.18;;;22.70;68.10;;;;;;5055496;28;20587;-14
2022/07/16 04:17:18;;;;;;;11.05;6.80;;;22.70;68.10;;;;;;5053960;28;20488;-14
2022/07/16 04:19:44;;;;;;;8.68;5.90;;;22.70;68.20;;;;;;5055380;28;20064;-14
2022/07/16 04:22:10;;;;;;;7.18;5.80;;;22.70;68.10;;;;;;5055425;28;20052;-14
2022/07/16 04:24:36;;;;;;;10.40;6.28;;;22.80;67.90;;;;;;5054740;28;20464;-14
2022/07/16 04:27:02;;;;;;;8.02;6.10;;;22.80;67.80;;;;;;5054248;28;20029;-14
2022/07/16 04:29:28;;;;;;;7.97;5.75;;;22.90;67.70;;;;;;5054379;28;20068;-13
2022/07/16 04:31:54;;;;;;;9.15;5.95;;;22.90;67.50;;;;;;5054663;28;20077;-17
2022/07/16 04:34:20;;;;;;;10.20;6.50;;;23.00;67.40;;;;;;5054724;28;20017;-14
2022/07/16 04:36:46;;;;;;;8.73;6.13;;;23.00;67.30;;;;;;5054994;28;20033;-14
2022/07/16 04:39:12;;;;;;;9.82;6.47;;;23.10;66.90;;;;;;5055091;28;20029;-16
2022/07/16 04:41:38;;;;;;;8.68;6.00;;;23.20;66.90;;;;;;5054683;28;20144;-14
2022/07/16 04:44:04;;;;;;;7.07;5.45;;;23.30;66.50;;;;;;5054881;28;20107;-14
2022/07/16 04:46:30;;;;;;;7.45;5.65;;;23.30;66.20;;;;;;5054422;28;20081;-13
2022/07/16 04:48:56;;;;;;;8.23;6.38;;;23.40;66.00;;;;;;5054403;28;20032;-14
2022/07/16 04:51:22;;;;;;;7.18;5.93;;;23.40;65.90;;;;;;5054484;28;20024;-15
2022/07/16 04:53:48;;;;;;;11.45;7.00;;;23.40;65.70;;;;;;5054464;28;20025;-14
2022/07/16 04:56:14;;;;;;;7.93;5.30;;;23.50;65.90;;;;;;5054310;28;20025;-14
2022/07/16 04:58:40;;;;;;;8.88;6.38;;;23.50;65.40;;;;;;5054996;28;20033;-15
2022/07/16 05:01:06;;;;;;;9.38;6.22;;;23.50;65.60;;;;;;5053064;28;20166;-14
2022/07/16 05:03:32;;;;;;;8.10;5.97;;;23.50;65.40;;;;;;5054678;28;20021;-14
2022/07/16 05:05:58;;;;;;;10.35;6.55;;;23.50;65.50;;;;;;5052951;28;20029;-14
2022/07/16 05:08:24;;;;;;;8.50;6.47;;;23.60;65.60;;;;;;5053954;28;20025;-14
2022/07/16 05:10:50;;;;;;;8.90;6.40;;;23.60;65.60;;;;;;5054144;28;20458;-15
2022/07/16 05:13:16;;;;;;;11.07;6.95;;;23.60;65.90;;;;;;5054473;28;20067;-15
2022/07/16 05:15:42;;;;;;;8.80;6.70;;;23.70;65.70;;;;;;5054017;28;20428;-14
2022/07/16 05:18:09;;;;;;;8.73;6.10;;;23.70;66.20;;;;;;5053817;28;20079;-15
2022/07/16 05:20:35;;;;;;;10.38;6.78;;;23.80;65.50;;;;;;5054013;28;20032;-14
2022/07/16 05:23:01;;;;;;;8.98;6.85;;;23.80;65.50;;;;;;5053748;28;20558;-14
2022/07/16 05:25:28;;;;;;;10.60;6.57;;;23.80;65.10;;;;;;5054077;28;20036;-13
2022/07/16 05:27:53;;;;;;;10.88;6.65;;;23.90;64.90;;;;;;5053934;28;20017;-13
2022/07/16 05:30:19;;;;;;;9.18;6.68;;;23.90;65.10;;;;;;5053478;28;20033;-14
2022/07/16 05:32:45;;;;;;;8.80;6.82;;;23.90;64.90;;;;;;5053591;28;20057;-14
2022/07/16 05:35:14;;;;;;;7.35;6.10;;;23.90;64.90;;;;;;5054084;28;20468;-14
2022/07/16 05:37:40;;;;;;;9.80;6.32;;;23.90;64.60;;;;;;5053568;28;20040;-14
2022/07/16 05:40:06;;;;;;;7.85;6.00;;;23.90;64.60;;;;;;5053655;28;20021;-16
2022/07/16 05:42:33;;;;;;;12.27;7.35;;;23.90;64.40;;;;;;5053237;28;20021;-14
2022/07/16 05:44:59;;;;;;;10.43;7.45;;;24.00;64.30;;;;;;5053502;28;20053;-15
2022/07/16 05:47:25;;;;;;;10.85;6.43;;;23.90;64.20;;;;;;5053434;28;20025;-14
2022/07/16 05:49:51;;;;;;;7.95;6.05;;;24.10;64.50;;;;;;5053739;28;20063;-14
2022/07/16 05:52:17;;;;;;;7.78;6.20;;;24.20;64.10;;;;;;5053273;28;20532;-14
2022/07/16 05:54:43;;;;;;;9.25;6.43;;;24.30;63.50;;;;;;5053415;28;20062;-14
2022/07/16 05:57:09;;;;;;;10.35;5.93;;;24.40;63.30;;;;;;5053387;28;20027;-14
2022/07/16 05:59:35;;;;;;;7.47;6.10;;;24.50;62.80;;;;;;5053568;28;20021;-14
2022/07/16 06:02:01;;;;;;;8.52;6.38;;;24.60;62.70;;;;;;5053474;28;20074;-14
2022/07/16 06:04:27;;;;;;;8.88;6.30;;;24.60;62.30;;;;;;5052985;28;20021;-15
2022/07/16 06:06:55;;;;;;;9.10;6.15;;;24.70;62.50;;;;;;5053438;28;20033;-14
2022/07/16 06:09:21;;;;;;;8.10;5.63;;;24.80;62.20;;;;;;5053451;28;20029;-14
2022/07/16 06:11:48;;;;;;;9.80;6.10;;;24.90;62.00;;;;;;5053093;28;20028;-14
2022/07/16 06:14:14;;;;;;;8.07;6.05;;;24.90;62.20;;;;;;5052884;28;20086;-14
2022/07/16 06:16:40;;;;;;;9.48;6.38;;;25.00;61.80;;;;;;5053350;28;20072;-14
2022/07/16 06:19:07;;;;;;;10.30;6.50;;;25.10;61.50;;;;;;5053216;28;20025;-14
2022/07/16 06:21:33;;;;;;;8.60;6.63;;;25.20;61.20;;;;;;5053090;28;20035;-14
2022/07/16 06:23:59;;;;;;;8.48;6.45;;;25.30;61.20;;;;;;5053163;28;20029;-13
2022/07/16 06:26:24;;;;;;;8.27;5.90;;;25.50;61.00;;;;;;5053155;28;20058;-14
2022/07/16 06:28:50;;;;;;;8.63;6.40;;;25.60;60.40;;;;;;5053216;28;20376;-14
2022/07/16 06:31:16;;;;;;;8.55;6.25;;;25.80;60.40;;;;;;5052690;28;20037;-14
2022/07/16 06:33:42;;;;;;;8.48;6.35;;;25.90;60.20;;;;;;5052989;28;20103;-14
2022/07/16 06:36:08;;;;;;;9.10;6.28;;;26.00;59.60;;;;;;5053016;28;20028;-14
2022/07/16 06:38:34;;;;;;;8.25;5.55;;;26.10;59.10;;;;;;5052710;28;20063;-14
2022/07/16 06:41:00;;;;;;;7.78;6.03;;;26.20;58.90;;;;;;5052772;28;20486;-14
2022/07/16 06:43:26;;;;;;;9.63;5.68;;;26.40;57.20;;;;;;5052844;28;20025;-14
2022/07/16 06:45:51;;;;;;;11.20;5.70;;;26.40;57.50;;;;;;5052923;28;20021;-15
2022/07/16 06:48:18;;;;;;;8.20;5.28;;;26.50;55.40;;;;;;5051197;28;20025;-14
2022/07/16 06:50:44;;;;;;;6.45;5.00;;;26.60;55.50;;;;;;5052715;28;20021;-14
2022/07/16 06:53:10;;;;;;;7.30;5.20;;;26.70;54.80;;;;;;5055863;28;20024;-14
2022/07/16 06:55:36;;;;;;;12.18;5.30;;;26.90;54.10;;;;;;5057008;28;20381;-14
2022/07/16 06:58:02;;;;;;;6.50;5.18;;;27.00;53.30;;;;;;5056908;28;20107;-15
2022/07/16 07:00:28;;;;;;;6.28;4.85;;;27.10;51.70;;;;;;5056806;28;20445;-14
2022/07/16 07:02:54;;;;;;;6.72;5.00;;;27.20;52.00;;;;;;5055162;28;20048;-13
2022/07/16 07:05:20;;;;;;;8.05;5.20;;;27.30;52.30;;;;;;5056732;28;20074;-14
2022/07/16 07:07:46;;;;;;;6.20;4.55;;;27.40;51.70;;;;;;5056571;28;20044;-15
2022/07/16 07:10:13;;;;;;;6.32;4.50;;;27.60;51.70;;;;;;5056446;28;20021;-15
2022/07/16 07:12:39;;;;;;;6.30;4.18;;;27.70;51.00;;;;;;5056624;28;20440;-15
2022/07/16 07:15:05;;;;;;;5.20;4.55;;;27.90;51.40;;;;;;5056555;28;20388;-15
2022/07/16 07:17:31;;;;;;;7.28;4.60;;;27.80;50.70;;;;;;5056197;28;20120;-15
2022/07/16 07:19:57;;;;;;;7.03;4.70;;;27.90;50.50;;;;;;5056245;28;20104;-15
2022/07/16 07:22:23;;;;;;;7.57;4.50;;;27.90;50.80;;;;;;5055969;28;20079;-15
2022/07/16 07:24:50;;;;;;;5.70;4.10;;;28.00;49.70;;;;;;5056158;28;20071;-14
2022/07/16 07:27:16;;;;;;;7.60;4.53;;;28.00;50.10;;;;;;5056494;28;20033;-14
2022/07/16 07:29:43;;;;;;;7.05;4.65;;;28.10;50.20;;;;;;5056019;28;20029;-14
2022/07/16 07:32:08;;;;;;;5.50;4.57;;;28.30;50.00;;;;;;5055877;28;20053;-14
2022/07/16 07:34:34;;;;;;;8.20;4.90;;;28.40;49.80;;;;;;5055755;28;20032;-14
2022/07/16 07:37:00;;;;;;;5.63;4.65;;;28.60;49.30;;;;;;5056159;28;20065;-14
2022/07/16 07:39:26;;;;;;;6.53;4.20;;;28.70;49.90;;;;;;5055821;28;20070;-14
2022/07/16 07:41:52;;;;;;;7.72;4.25;;;28.90;49.80;;;;;;5055930;28;20037;-14
2022/07/16 07:44:18;;;;;;;7.15;4.82;;;29.10;49.70;;;;;;5055546;28;20419;-14
2022/07/16 07:46:44;;;;;;;6.72;4.18;;;29.20;49.40;;;;;;5056268;28;20025;-14
2022/07/16 07:49:11;;;;;;;7.38;4.70;;;29.30;50.00;;;;;;5055867;28;20025;-14
2022/07/16 07:51:37;;;;;;;6.70;5.03;;;29.40;49.60;;;;;;5055716;28;20067;-14
2022/07/16 07:54:03;;;;;;;6.97;4.85;;;29.60;49.30;;;;;;5056088;28;20025;-14
2022/07/16 07:56:29;;;;;;;7.65;4.97;;;29.70;48.80;;;;;;5055420;28;20037;-14
2022/07/16 07:58:55;;;;;;;7.68;4.88;;;29.80;48.50;;;;;;5055938;28;20111;-14
2022/07/16 08:01:21;;;;;;;5.25;4.40;;;29.90;48.80;;;;;;5055368;28;20044;-14
2022/07/16 08:03:47;;;;;;;6.25;4.55;;;30.20;48.60;;;;;;5054134;28;20390;-15
2022/07/16 08:06:13;;;;;;;5.70;4.68;;;30.30;47.00;;;;;;5055272;28;20510;-15
2022/07/16 08:08:39;;;;;;;10.48;5.20;;;30.50;47.10;;;;;;5055311;28;20025;-14
2022/07/16 08:11:05;;;;;;;5.50;4.45;;;30.40;45.70;;;;;;5054093;28;20032;-14
2022/07/16 08:13:31;;;;;;;6.15;4.35;;;30.60;46.50;;;;;;5055273;28;20526;-14
2022/07/16 08:15:57;;;;;;;8.10;4.72;;;30.60;46.50;;;;;;5054070;28;20028;-14
2022/07/16 08:18:22;;;;;;;18.90;5.53;;;30.80;46.60;;;;;;5055016;28;20083;-16
2022/07/16 08:20:48;;;;;;;13.88;4.90;;;31.00;46.10;;;;;;5055039;28;20029;-13
2022/07/16 08:25:44;;;;;;;6.55;4.60;;;31.20;45.30;;;;;;5055002;28;20057;-14
2022/07/16 08:26:00;;;;;;;7.03;4.85;;;31.30;45.40;;;;;;5055629;28;20033;-14
2022/07/16 08:28:26;;;;;;;10.00;5.20;;;31.50;45.40;;;;;;5055078;28;20053;-14
2022/07/16 08:30:52;;;;;;;5.35;3.97;;;31.50;44.50;;;;;;5054856;28;20403;-14
2022/07/16 08:33:17;;;;;;;6.60;4.38;;;31.50;44.80;;;;;;5053374;28;20045;-13
2022/07/16 08:35:44;;;;;;;5.22;4.63;;;31.80;44.80;;;;;;5054828;28;20079;-14
2022/07/16 08:38:10;;;;;;;5.57;4.70;;;32.10;44.00;;;;;;5054942;28;20130;-13
2022/07/16 08:40:40;;;;;;;7.82;4.65;;;32.30;44.10;;;;;;5054559;28;20021;-14
2022/07/16 08:43:08;;;;;;;6.72;4.68;;;32.30;44.10;;;;;;5054662;28;20072;-13
2022/07/16 08:45:36;;;;;;;5.18;4.57;;;32.20;42.70;;;;;;5054515;28;20486;-13
2022/07/16 08:48:02;;;;;;;6.82;4.70;;;32.20;43.80;;;;;;5054490;28;20379;-13
2022/07/16 08:50:28;;;;;;;6.28;4.43;;;32.30;43.50;;;;;;5054826;28;20095;-15
2022/07/16 08:52:57;;;;;;;6.22;4.47;;;32.50;43.90;;;;;;5054793;28;20030;-15
2022/07/16 08:55:27;;;;;;;8.18;5.15;;;32.70;42.40;;;;;;5054734;28;20619;-16
2022/07/16 08:57:56;;;;;;;7.95;4.78;;;32.60;41.80;;;;;;5054475;28;20108;-14
2022/07/16 09:00:22;;;;;;;5.53;3.85;;;32.70;42.30;;;;;;5054185;28;20021;-14
2022/07/16 09:02:48;;;;;;;8.07;4.50;;;32.90;42.30;;;;;;5054622;28;20108;-14
2022/07/16 09:05:15;;;;;;;5.97;4.18;;;32.90;41.90;;;;;;5054465;28;20139;-14
2022/07/16 09:07:40;;;;;;;8.68;4.57;;;33.10;41.50;;;;;;5054384;28;20076;-14
2022/07/16 09:10:09;;;;;;;6.90;3.97;;;33.30;41.40;;;;;;5054168;28;20028;-16
2022/07/16 09:12:44;;;;;;;15.63;4.90;;;33.70;41.10;;;;;;5054003;28;20480;-14
2022/07/16 09:15:31;;;;;;;5.95;4.45;;;33.90;39.50;;;;;;5053885;28;20067;-15
2022/07/16 09:18:07;;;;;;;6.22;4.10;;;34.10;39.90;;;;;;5054331;28;20086;-14
2022/07/16 09:20:34;;;;;;;7.53;3.80;;;34.30;39.80;;;;;;5054081;28;20040;-15
2022/07/16 09:23:02;;;;;;;6.45;4.20;;;34.50;39.10;;;;;;5054114;28;20063;-14
2022/07/16 09:25:28;;;;;;;5.10;4.25;;;34.50;39.00;;;;;;5052722;28;20033;-14
2022/07/16 09:28:01;;;;;;;6.32;4.05;;;34.70;38.50;;;;;;5054057;28;20075;-14
2022/07/16 09:30:28;;;;;;;5.30;4.40;;;34.90;37.60;;;;;;5053555;28;20031;-14
2022/07/16 09:32:54;;;;;;;4.40;4.00;;;34.80;38.40;;;;;;5053471;28;20508;-14
2022/07/16 09:35:21;;;;;;;7.13;4.05;;;34.90;38.00;;;;;;5052912;28;20067;-14
2022/07/16 09:37:51;;;;;;;5.78;3.58;;;34.70;37.70;;;;;;5053758;28;20036;-16
2022/07/16 09:40:39;;;;;;;6.15;3.72;;;34.90;37.80;;;;;;5053464;28;20036;-15
2022/07/16 09:43:11;;;;;;;8.73;4.22;;;34.90;36.80;;;;;;5053942;28;20040;-15
2022/07/16 09:45:39;;;;;;;7.65;3.90;;;35.20;37.30;;;;;;5054009;28;20033;-14
2022/07/16 09:48:25;;;;;;;7.13;4.43;;;35.40;37.50;;;;;;5053531;28;20035;-14
2022/07/16 09:50:54;;;;;;;15.43;4.95;;;35.30;36.60;;;;;;5053881;28;20112;-14
2022/07/16 09:53:25;;;;;;;6.70;4.00;;;35.50;37.40;;;;;;5052219;28;20048;-14
2022/07/16 09:56:14;;;;;;;8.07;4.40;;;35.70;37.30;;;;;;5053548;28;20048;-14
2022/07/16 09:58:46;;;;;;;6.50;3.75;;;35.60;36.00;;;;;;5053614;28;20492;-14
2022/07/16 10:01:14;;;;;;;5.68;3.95;;;35.90;36.20;;;;;;5053569;28;20037;-13
2022/07/16 10:03:40;;;;;;;8.00;3.90;;;36.10;35.20;;;;;;5053268;28;20497;-13
2022/07/16 10:06:08;;;;;;;5.30;4.00;;;36.10;35.50;;;;;;5053196;28;20040;-14
2022/07/16 10:08:34;;;;;;;7.40;3.92;;;36.20;34.80;;;;;;5053326;28;20043;-13
2022/07/16 10:11:01;;;;;;;7.85;4.40;;;36.00;35.30;;;;;;5053339;28;20473;-15
2022/07/16 10:13:28;;;;;;;8.55;4.00;;;35.90;35.40;;;;;;5053144;28;20041;-15
2022/07/16 10:15:55;;;;;;;8.35;4.05;;;35.80;35.80;;;;;;5053395;28;20032;-14
2022/07/16 10:18:36;;;;;;;6.88;4.10;;;35.90;35.50;;;;;;5052879;28;20028;-14
2022/07/16 10:21:08;;;;;;;16.35;4.47;;;36.20;34.80;;;;;;5052886;28;20116;-14
2022/07/16 10:23:35;;;;;;;8.20;3.95;;;36.40;34.50;;;;;;5053032;28;20017;-14
2022/07/16 10:26:08;;;;;;;5.78;3.67;;;36.50;34.70;;;;;;5052759;28;20117;-14
2022/07/16 10:29:01;;;;;;;6.43;3.88;;;36.70;34.30;;;;;;5052515;28;20075;-14
2022/07/16 10:31:30;;;;;;;5.25;3.50;;;36.90;33.50;;;;;;5050925;28;20041;-14
2022/07/16 10:34:14;;;;;;;4.93;3.65;;;36.90;34.20;;;;;;5052840;28;20060;-13
2022/07/16 10:36:55;;;;;;;5.40;3.80;;;37.30;33.00;;;;;;5052820;28;20504;-14
2022/07/16 10:39:23;;;;;;;7.32;3.88;;;37.60;32.40;;;;;;5053256;28;20481;-14
2022/07/16 10:41:51;;;;;;;3.90;3.35;;;37.90;32.50;;;;;;5052901;28;20033;-13
2022/07/16 10:44:19;;;;;;;5.03;3.10;;;38.10;32.90;;;;;;5052462;28;20025;-13
2022/07/16 10:47:02;;;;;;;6.15;3.58;;;38.20;32.90;;;;;;5053261;28;20099;-13
2022/07/16 10:49:30;;;;;;;4.65;3.40;;;38.40;31.90;;;;;;5052720;28;20107;-14
2022/07/16 10:52:03;;;;;;;3.53;3.22;;;38.50;32.00;;;;;;5052962;28;20052;-14
2022/07/16 10:54:30;;;;;;;4.32;3.20;;;38.80;31.40;;;;;;5052812;28;20036;-13
2022/07/16 10:56:58;;;;;;;3.95;3.28;;;39.20;31.10;;;;;;5052654;28;20025;-14
2022/07/16 10:59:33;;;;;;;3.55;3.20;;;39.60;30.10;;;;;;5052989;28;20029;-13
2022/07/16 11:02:03;;;;;;;4.97;3.50;;;39.70;30.20;;;;;;5052831;28;20025;-13
2022/07/16 11:04:40;;;;;;;5.60;3.22;;;39.70;30.40;;;;;;5052283;28;20108;-13
2022/07/16 11:07:09;;;;;;;5.95;3.55;;;40.20;29.70;;;;;;5053092;28;20028;-13
2022/07/16 11:09:38;;;;;;;6.50;3.58;;;40.50;29.00;;;;;;5052605;28;20070;-13
2022/07/16 11:12:09;;;;;;;4.47;3.28;;;40.80;28.90;;;;;;5052495;28;20021;-13
2022/07/16 11:14:37;;;;;;;3.90;3.38;;;40.90;29.00;;;;;;5052341;28;20056;-13
2022/07/16 11:17:04;;;;;;;4.53;3.47;;;41.20;28.70;;;;;;5052525;28;20022;-14
2022/07/16 11:19:41;;;;;;;3.65;3.03;;;41.50;28.40;;;;;;5051164;28;20512;-13
2022/07/16 11:22:08;;;;;;;4.55;3.50;;;41.80;27.90;;;;;;5052537;28;20029;-13
2022/07/16 11:24:35;;;;;;;6.25;3.70;;;41.80;27.90;;;;;;5052464;28;20036;-13
2022/07/16 11:27:02;;;;;;;6.22;3.60;;;41.80;28.10;;;;;;5052411;28;20515;-13
2022/07/16 11:29:30;;;;;;;3.78;3.03;;;41.80;27.80;;;;;;5052597;28;20025;-13
2022/07/16 11:31:58;;;;;;;5.93;3.20;;;41.80;28.20;;;;;;5052160;28;20056;-13
2022/07/16 11:34:24;;;;;;;7.22;3.30;;;41.90;28.10;;;;;;5052134;28;20448;-13
2022/07/16 11:36:54;;;;;;;4.70;3.40;;;42.00;27.90;;;;;;5052784;28;20415;-13
2022/07/16 11:39:25;;;;;;;4.45;3.33;;;42.40;27.60;;;;;;5055356;28;20028;-13
2022/07/16 11:41:54;;;;;;;4.20;3.38;;;42.70;27.00;;;;;;5056019;28;20511;-13
2022/07/16 11:44:25;;;;;;;4.00;3.25;;;43.00;27.20;;;;;;5055694;28;20103;-14
2022/07/16 11:46:57;;;;;;;3.60;3.10;;;43.30;26.80;;;;;;5056326;28;20037;-13
2022/07/16 11:49:28;;;;;;;4.07;3.17;;;43.50;26.30;;;;;;5055887;28;20025;-13
2022/07/16 11:52:00;;;;;;;4.70;3.25;;;43.90;25.90;;;;;;5055926;28;20043;-13
2022/07/16 11:54:29;;;;;;;3.67;3.33;;;44.10;26.00;;;;;;5054407;28;20035;-13
2022/07/16 11:56:57;;;;;;;3.42;3.00;;;44.40;25.80;;;;;;5055815;28;20485;-14
2022/07/16 11:59:32;;;;;;;4.60;3.40;;;44.50;25.00;;;;;;5054767;28;20067;-13
2022/07/16 12:01:58;;;;;;;3.80;3.30;;;44.50;24.90;;;;;;5055715;28;20025;-13
2022/07/16 12:04:38;;;;;;;5.25;3.40;;;44.50;24.50;;;;;;5055417;28;20476;-13
2022/07/16 12:07:07;;;;;;;4.68;3.22;;;44.50;24.60;;;;;;5055432;28;20029;-14
2022/07/16 12:09:37;;;;;;;4.72;3.65;;;44.50;24.60;;;;;;5055603;28;20032;-13
2022/07/16 12:12:07;;;;;;;4.97;3.38;;;44.60;24.80;;;;;;5055454;28;20013;-13
2022/07/16 12:14:55;;;;;;;3.35;3.00;;;44.70;24.20;;;;;;5055110;28;20388;-14
2022/07/16 12:17:25;;;;;;;5.78;3.13;;;44.50;24.90;;;;;;5055410;28;20040;-13
2022/07/16 12:20:09;;;;;;;5.32;3.22;;;44.70;24.50;;;;;;5055091;28;20024;-13
2022/07/16 12:22:54;;;;;;;3.95;3.25;;;44.90;24.70;;;;;;5054873;28;20544;-13
2022/07/16 12:25:28;;;;;;;5.18;3.50;;;45.10;24.00;;;;;;5055283;28;20020;-13
2022/07/16 12:27:59;;;;;;;3.20;2.92;;;45.30;24.50;;;;;;5055307;28;20457;-13
2022/07/16 12:30:30;;;;;;;;;;;45.20;24.60;;;;;;5055262;28;20029;-14
2022/07/16 12:32:57;;;;;;;4.40;3.10;;;44.90;25.00;;;;;;5054730;28;19983;-13
2022/07/16 12:35:41;;;;;;;3.70;3.40;;;44.70;25.40;;;;;;5055021;28;20075;-13
2022/07/16 12:38:27;;;;;;;3.70;3.38;;;44.20;25.10;;;;;;5055192;28;20041;-13
2022/07/16 12:40:53;;;;;;;5.93;3.25;;;43.80;25.80;;;;;;5055142;28;20392;-13
2022/07/16 12:43:19;;;;;;;7.85;3.38;;;43.50;26.30;;;;;;5054618;28;20025;-13
2022/07/16 12:45:45;;;;;;;4.10;3.22;;;43.00;26.30;;;;;;5054645;28;20033;-13
2022/07/16 12:48:11;;;;;;;5.68;3.40;;;42.90;26.50;;;;;;5054629;28;20505;-13
2022/07/16 12:50:38;;;;;;;4.88;3.70;;;42.70;26.70;;;;;;5054026;28;20032;-13
2022/07/16 12:53:04;;;;;;;5.60;3.45;;;42.40;26.50;;;;;;5054586;28;20387;-13